sensor_id;sensor_type;location;lat;lon;timestamp;P1;durP1;ratioP1;P2;durP2;ratioP2
75990;SDS011;64673;52.276;10.560;2022-12-31T00:01:02;2.97;;;0.93;;
75990;SDS011;64673;52.276;10.560;2022-12-31T00:03:28;4.00;;;1.33;;
75990;SDS011;64673;52.276;10.560;2022-12-31T00:05:54;2.92;;;1.65;;
75990;SDS011;64673;52.276;10.560;2022-12-31T00:08:19;4.35;;;1.48;;
75990;SDS011;64673;52.276;10.560;2022-12-31T00:10:44;3.55;;;1.75;;
75990;SDS011;64673;52.276;10.560;2022-12-31T00:13:10;2.72;;;1.13;;
75990;SDS011;64673;52.276;10.560;2022-12-31T00:15:37;1.75;;;1.10;;
75990;SDS011;64673;52.276;10.560;2022-12-31T00:18:03;1.95;;;1.27;;
75990;SDS011;64673;52.276;10.560;2022-12-31T00:20:29;3.90;;;1.60;;
75990;SDS011;64673;52.276;10.560;2022-12-31T00:22:55;3.45;;;1.42;;
75990;SDS011;64673;52.276;10.560;2022-12-31T00:25:20;2.33;;;1.25;;
75990;SDS011;64673;52.276;10.560;2022-12-31T00:27:46;2.08;;;1.10;;
75990;SDS011;64673;52.276;10.560;2022-12-31T00:30:11;2.00;;;0.90;;
75990;SDS011;64673;52.276;10.560;2022-12-31T00:32:37;2.53;;;1.27;;
75990;SDS011;64673;52.276;10.560;2022-12-31T00:35:02;1.45;;;0.80;;
75990;SDS011;64673;52.276;10.560;2022-12-31T00:37:28;1.33;;;0.90;;
75990;SDS011;64673;52.276;10.560;2022-12-31T00:39:53;0.98;;;0.70;;
75990;SDS011;64673;52.276;10.560;2022-12-31T00:42:19;1.38;;;0.70;;
75990;SDS011;64673;52.276;10.560;2022-12-31T00:44:44;1.23;;;1.00;;
75990;SDS011;64673;52.276;10.560;2022-12-31T00:47:09;1.23;;;0.70;;
75990;SDS011;64673;52.276;10.560;2022-12-31T00:49:35;1.30;;;0.80;;
75990;SDS011;64673;52.276;10.560;2022-12-31T00:52:00;1.00;;;0.57;;
75990;SDS011;64673;52.276;10.560;2022-12-31T00:54:25;1.20;;;0.52;;
75990;SDS011;64673;52.276;10.560;2022-12-31T00:56:51;1.83;;;0.70;;
75990;SDS011;64673;52.276;10.560;2022-12-31T00:59:16;0.95;;;0.47;;
75990;SDS011;64673;52.276;10.560;2022-12-31T01:01:41;0.85;;;0.50;;
75990;SDS011;64673;52.276;10.560;2022-12-31T01:04:09;0.85;;;0.50;;
75990;SDS011;64673;52.276;10.560;2022-12-31T01:06:37;2.58;;;0.55;;
75990;SDS011;64673;52.276;10.560;2022-12-31T01:09:04;1.65;;;0.40;;
75990;SDS011;64673;52.276;10.560;2022-12-31T01:11:31;0.82;;;0.50;;
75990;SDS011;64673;52.276;10.560;2022-12-31T01:14:10;0.80;;;0.40;;
75990;SDS011;64673;52.276;10.560;2022-12-31T01:16:41;0.45;;;0.25;;
75990;SDS011;64673;52.276;10.560;2022-12-31T01:19:10;1.60;;;0.45;;
75990;SDS011;64673;52.276;10.560;2022-12-31T01:21:38;0.93;;;0.60;;
75990;SDS011;64673;52.276;10.560;2022-12-31T01:24:05;1.58;;;0.70;;
75990;SDS011;64673;52.276;10.560;2022-12-31T01:26:31;1.55;;;0.70;;
75990;SDS011;64673;52.276;10.560;2022-12-31T01:28:56;3.72;;;1.13;;
75990;SDS011;64673;52.276;10.560;2022-12-31T01:31:22;2.20;;;0.70;;
75990;SDS011;64673;52.276;10.560;2022-12-31T01:33:48;3.53;;;0.98;;
75990;SDS011;64673;52.276;10.560;2022-12-31T01:36:16;3.63;;;0.90;;
75990;SDS011;64673;52.276;10.560;2022-12-31T01:38:43;2.72;;;1.13;;
75990;SDS011;64673;52.276;10.560;2022-12-31T01:41:18;1.35;;;0.80;;
75990;SDS011;64673;52.276;10.560;2022-12-31T01:43:47;1.02;;;0.70;;
75990;SDS011;64673;52.276;10.560;2022-12-31T01:46:27;1.13;;;0.68;;
75990;SDS011;64673;52.276;10.560;2022-12-31T01:48:54;0.90;;;0.52;;
75990;SDS011;64673;52.276;10.560;2022-12-31T01:51:24;1.38;;;0.63;;
75990;SDS011;64673;52.276;10.560;2022-12-31T01:53:51;1.83;;;0.80;;
75990;SDS011;64673;52.276;10.560;2022-12-31T01:56:17;2.00;;;0.90;;
75990;SDS011;64673;52.276;10.560;2022-12-31T01:58:46;3.42;;;0.77;;
75990;SDS011;64673;52.276;10.560;2022-12-31T02:01:14;1.77;;;0.60;;
75990;SDS011;64673;52.276;10.560;2022-12-31T02:03:47;1.58;;;0.90;;
75990;SDS011;64673;52.276;10.560;2022-12-31T02:06:13;1.85;;;0.80;;
75990;SDS011;64673;52.276;10.560;2022-12-31T02:08:44;2.28;;;0.63;;
75990;SDS011;64673;52.276;10.560;2022-12-31T02:11:42;1.75;;;0.77;;
75990;SDS011;64673;52.276;10.560;2022-12-31T02:14:06;1.10;;;0.60;;
75990;SDS011;64673;52.276;10.560;2022-12-31T02:27:22;1.25;;;0.57;;
75990;SDS011;64673;52.276;10.560;2022-12-31T02:32:41;0.70;;;0.40;;
75990;SDS011;64673;52.276;10.560;2022-12-31T02:35:12;0.73;;;0.30;;
75990;SDS011;64673;52.276;10.560;2022-12-31T02:37:44;0.32;;;0.20;;
75990;SDS011;64673;52.276;10.560;2022-12-31T02:40:14;0.73;;;0.22;;
75990;SDS011;64673;52.276;10.560;2022-12-31T02:42:42;0.50;;;0.38;;
75990;SDS011;64673;52.276;10.560;2022-12-31T02:45:09;1.52;;;0.40;;
75990;SDS011;64673;52.276;10.560;2022-12-31T02:47:55;0.90;;;0.50;;
75990;SDS011;64673;52.276;10.560;2022-12-31T02:50:56;2.55;;;0.73;;
75990;SDS011;64673;52.276;10.560;2022-12-31T02:53:40;1.95;;;0.40;;
75990;SDS011;64673;52.276;10.560;2022-12-31T02:56:37;0.50;;;0.20;;
75990;SDS011;64673;52.276;10.560;2022-12-31T02:59:29;0.70;;;0.30;;
75990;SDS011;64673;52.276;10.560;2022-12-31T03:02:19;0.70;;;0.38;;
75990;SDS011;64673;52.276;10.560;2022-12-31T03:04:49;0.70;;;0.30;;
75990;SDS011;64673;52.276;10.560;2022-12-31T03:07:18;0.63;;;0.40;;
75990;SDS011;64673;52.276;10.560;2022-12-31T03:09:46;1.00;;;0.70;;
75990;SDS011;64673;52.276;10.560;2022-12-31T03:12:12;0.90;;;0.40;;
75990;SDS011;64673;52.276;10.560;2022-12-31T03:14:56;0.70;;;0.47;;
75990;SDS011;64673;52.276;10.560;2022-12-31T03:17:22;0.85;;;0.30;;
75990;SDS011;64673;52.276;10.560;2022-12-31T03:19:48;0.40;;;0.30;;
75990;SDS011;64673;52.276;10.560;2022-12-31T03:22:32;1.23;;;0.30;;
75990;SDS011;64673;52.276;10.560;2022-12-31T03:25:02;0.40;;;0.22;;
75990;SDS011;64673;52.276;10.560;2022-12-31T03:27:52;0.90;;;0.40;;
75990;SDS011;64673;52.276;10.560;2022-12-31T03:30:18;0.73;;;0.32;;
75990;SDS011;64673;52.276;10.560;2022-12-31T03:32:47;0.60;;;0.30;;
75990;SDS011;64673;52.276;10.560;2022-12-31T03:35:13;0.73;;;0.40;;
75990;SDS011;64673;52.276;10.560;2022-12-31T03:37:40;0.57;;;0.30;;
75990;SDS011;64673;52.276;10.560;2022-12-31T03:40:06;0.52;;;0.30;;
75990;SDS011;64673;52.276;10.560;2022-12-31T03:42:33;0.60;;;0.20;;
75990;SDS011;64673;52.276;10.560;2022-12-31T03:44:59;0.38;;;0.10;;
75990;SDS011;64673;52.276;10.560;2022-12-31T03:47:24;1.60;;;0.30;;
75990;SDS011;64673;52.276;10.560;2022-12-31T03:49:49;1.73;;;0.20;;
75990;SDS011;64673;52.276;10.560;2022-12-31T03:52:15;0.65;;;0.20;;
75990;SDS011;64673;52.276;10.560;2022-12-31T03:54:40;1.80;;;0.30;;
75990;SDS011;64673;52.276;10.560;2022-12-31T03:57:06;0.85;;;0.35;;
75990;SDS011;64673;52.276;10.560;2022-12-31T03:59:31;0.55;;;0.20;;
75990;SDS011;64673;52.276;10.560;2022-12-31T04:01:56;0.40;;;0.20;;
75990;SDS011;64673;52.276;10.560;2022-12-31T04:04:22;0.93;;;0.20;;
75990;SDS011;64673;52.276;10.560;2022-12-31T04:06:47;1.92;;;0.30;;
75990;SDS011;64673;52.276;10.560;2022-12-31T04:09:12;0.65;;;0.20;;
75990;SDS011;64673;52.276;10.560;2022-12-31T04:11:38;0.65;;;0.28;;
75990;SDS011;64673;52.276;10.560;2022-12-31T04:14:03;0.35;;;0.20;;
75990;SDS011;64673;52.276;10.560;2022-12-31T04:16:28;0.30;;;0.30;;
75990;SDS011;64673;52.276;10.560;2022-12-31T04:18:54;0.30;;;0.20;;
75990;SDS011;64673;52.276;10.560;2022-12-31T04:21:19;0.70;;;0.22;;
75990;SDS011;64673;52.276;10.560;2022-12-31T04:23:45;0.63;;;0.20;;
75990;SDS011;64673;52.276;10.560;2022-12-31T04:26:10;1.00;;;0.28;;
75990;SDS011;64673;52.276;10.560;2022-12-31T04:28:35;0.22;;;0.10;;
75990;SDS011;64673;52.276;10.560;2022-12-31T04:31:01;0.30;;;0.10;;
75990;SDS011;64673;52.276;10.560;2022-12-31T04:33:28;0.70;;;0.10;;
75990;SDS011;64673;52.276;10.560;2022-12-31T04:35:58;0.25;;;0.08;;
75990;SDS011;64673;52.276;10.560;2022-12-31T04:38:24;0.10;;;0.10;;
75990;SDS011;64673;52.276;10.560;2022-12-31T04:40:50;0.20;;;0.00;;
75990;SDS011;64673;52.276;10.560;2022-12-31T04:43:33;0.30;;;0.13;;
75990;SDS011;64673;52.276;10.560;2022-12-31T04:45:59;0.20;;;0.10;;
75990;SDS011;64673;52.276;10.560;2022-12-31T04:48:24;0.20;;;0.10;;
75990;SDS011;64673;52.276;10.560;2022-12-31T04:50:49;0.30;;;0.20;;
75990;SDS011;64673;52.276;10.560;2022-12-31T04:53:15;0.28;;;0.10;;
75990;SDS011;64673;52.276;10.560;2022-12-31T04:55:40;0.22;;;0.10;;
75990;SDS011;64673;52.276;10.560;2022-12-31T04:58:06;0.77;;;0.10;;
75990;SDS011;64673;52.276;10.560;2022-12-31T05:00:31;1.65;;;0.20;;
75990;SDS011;64673;52.276;10.560;2022-12-31T05:02:56;0.10;;;0.10;;
75990;SDS011;64673;52.276;10.560;2022-12-31T05:05:21;0.20;;;0.20;;
75990;SDS011;64673;52.276;10.560;2022-12-31T05:07:47;0.32;;;0.17;;
75990;SDS011;64673;52.276;10.560;2022-12-31T05:10:12;0.13;;;0.10;;
75990;SDS011;64673;52.276;10.560;2022-12-31T05:12:37;0.32;;;0.10;;
75990;SDS011;64673;52.276;10.560;2022-12-31T05:15:03;0.20;;;0.10;;
75990;SDS011;64673;52.276;10.560;2022-12-31T05:17:29;0.38;;;0.20;;
75990;SDS011;64673;52.276;10.560;2022-12-31T05:19:54;0.20;;;0.10;;
75990;SDS011;64673;52.276;10.560;2022-12-31T05:22:19;0.40;;;0.10;;
75990;SDS011;64673;52.276;10.560;2022-12-31T05:24:53;1.15;;;0.40;;
75990;SDS011;64673;52.276;10.560;2022-12-31T05:27:19;1.58;;;0.20;;
75990;SDS011;64673;52.276;10.560;2022-12-31T05:29:45;1.17;;;0.30;;
75990;SDS011;64673;52.276;10.560;2022-12-31T05:32:10;0.98;;;0.50;;
75990;SDS011;64673;52.276;10.560;2022-12-31T05:34:35;0.90;;;0.40;;
75990;SDS011;64673;52.276;10.560;2022-12-31T05:37:01;1.65;;;0.60;;
75990;SDS011;64673;52.276;10.560;2022-12-31T05:39:26;1.13;;;0.40;;
75990;SDS011;64673;52.276;10.560;2022-12-31T05:41:51;0.85;;;0.28;;
75990;SDS011;64673;52.276;10.560;2022-12-31T05:44:17;1.98;;;0.40;;
75990;SDS011;64673;52.276;10.560;2022-12-31T05:46:42;1.08;;;0.50;;
75990;SDS011;64673;52.276;10.560;2022-12-31T05:49:07;0.47;;;0.28;;
75990;SDS011;64673;52.276;10.560;2022-12-31T05:51:33;2.08;;;0.60;;
75990;SDS011;64673;52.276;10.560;2022-12-31T05:53:58;1.27;;;0.40;;
75990;SDS011;64673;52.276;10.560;2022-12-31T05:56:23;0.65;;;0.28;;
75990;SDS011;64673;52.276;10.560;2022-12-31T05:58:49;0.82;;;0.30;;
75990;SDS011;64673;52.276;10.560;2022-12-31T06:01:14;0.28;;;0.10;;
75990;SDS011;64673;52.276;10.560;2022-12-31T06:03:40;0.20;;;0.08;;
75990;SDS011;64673;52.276;10.560;2022-12-31T06:06:05;0.88;;;0.20;;
75990;SDS011;64673;52.276;10.560;2022-12-31T06:08:31;0.40;;;0.17;;
75990;SDS011;64673;52.276;10.560;2022-12-31T06:10:58;0.95;;;0.10;;
75990;SDS011;64673;52.276;10.560;2022-12-31T06:13:24;0.70;;;0.30;;
75990;SDS011;64673;52.276;10.560;2022-12-31T06:15:49;0.30;;;0.20;;
75990;SDS011;64673;52.276;10.560;2022-12-31T06:18:14;0.75;;;0.28;;
75990;SDS011;64673;52.276;10.560;2022-12-31T06:20:40;0.47;;;0.30;;
75990;SDS011;64673;52.276;10.560;2022-12-31T06:23:05;0.60;;;0.30;;
75990;SDS011;64673;52.276;10.560;2022-12-31T06:25:30;0.55;;;0.30;;
75990;SDS011;64673;52.276;10.560;2022-12-31T06:27:56;0.30;;;0.20;;
75990;SDS011;64673;52.276;10.560;2022-12-31T06:30:21;4.80;;;2.38;;
75990;SDS011;64673;52.276;10.560;2022-12-31T06:32:48;4.88;;;1.67;;
75990;SDS011;64673;52.276;10.560;2022-12-31T06:35:13;3.25;;;1.55;;
75990;SDS011;64673;52.276;10.560;2022-12-31T06:37:39;3.85;;;1.70;;
75990;SDS011;64673;52.276;10.560;2022-12-31T06:40:04;2.80;;;1.15;;
75990;SDS011;64673;52.276;10.560;2022-12-31T06:42:30;2.80;;;0.70;;
75990;SDS011;64673;52.276;10.560;2022-12-31T06:44:59;1.00;;;0.50;;
75990;SDS011;64673;52.276;10.560;2022-12-31T06:47:24;1.50;;;0.25;;
75990;SDS011;64673;52.276;10.560;2022-12-31T06:49:50;0.30;;;0.17;;
75990;SDS011;64673;52.276;10.560;2022-12-31T06:52:16;0.20;;;0.10;;
75990;SDS011;64673;52.276;10.560;2022-12-31T06:54:41;0.45;;;0.10;;
75990;SDS011;64673;52.276;10.560;2022-12-31T06:57:07;0.45;;;0.10;;
75990;SDS011;64673;52.276;10.560;2022-12-31T06:59:33;0.15;;;0.05;;
75990;SDS011;64673;52.276;10.560;2022-12-31T07:02:03;1.38;;;0.20;;
75990;SDS011;64673;52.276;10.560;2022-12-31T07:07:34;0.57;;;0.30;;
75990;SDS011;64673;52.276;10.560;2022-12-31T07:20:57;0.35;;;0.30;;
75990;SDS011;64673;52.276;10.560;2022-12-31T07:23:22;1.02;;;0.20;;
75990;SDS011;64673;52.276;10.560;2022-12-31T07:25:58;0.40;;;0.20;;
75990;SDS011;64673;52.276;10.560;2022-12-31T07:31:26;0.50;;;0.20;;
75990;SDS011;64673;52.276;10.560;2022-12-31T07:33:58;0.93;;;0.20;;
75990;SDS011;64673;52.276;10.560;2022-12-31T07:40:00;0.40;;;0.13;;
75990;SDS011;64673;52.276;10.560;2022-12-31T07:42:11;1.20;;;0.20;;
75990;SDS011;64673;52.276;10.560;2022-12-31T07:47:25;0.50;;;0.28;;
75990;SDS011;64673;52.276;10.560;2022-12-31T07:49:52;0.73;;;0.30;;
75990;SDS011;64673;52.276;10.560;2022-12-31T07:52:19;0.80;;;0.40;;
75990;SDS011;64673;52.276;10.560;2022-12-31T07:54:45;1.85;;;0.60;;
75990;SDS011;64673;52.276;10.560;2022-12-31T07:57:11;1.25;;;0.50;;
75990;SDS011;64673;52.276;10.560;2022-12-31T08:02:25;2.67;;;1.10;;
75990;SDS011;64673;52.276;10.560;2022-12-31T08:08:04;4.55;;;1.00;;
75990;SDS011;64673;52.276;10.560;2022-12-31T08:13:26;1.33;;;0.85;;
75990;SDS011;64673;52.276;10.560;2022-12-31T08:15:51;1.73;;;0.63;;
75990;SDS011;64673;52.276;10.560;2022-12-31T08:18:17;0.95;;;0.30;;
75990;SDS011;64673;52.276;10.560;2022-12-31T08:20:46;0.50;;;0.22;;
75990;SDS011;64673;52.276;10.560;2022-12-31T08:31:18;1.10;;;0.15;;
75990;SDS011;64673;52.276;10.560;2022-12-31T08:33:50;0.38;;;0.35;;
75990;SDS011;64673;52.276;10.560;2022-12-31T08:36:31;0.22;;;0.10;;
75990;SDS011;64673;52.276;10.560;2022-12-31T08:41:40;0.25;;;0.10;;
75990;SDS011;64673;52.276;10.560;2022-12-31T08:49:32;0.68;;;0.30;;
75990;SDS011;64673;52.276;10.560;2022-12-31T08:51:59;0.65;;;0.35;;
75990;SDS011;64673;52.276;10.560;2022-12-31T08:54:26;0.45;;;0.30;;
75990;SDS011;64673;52.276;10.560;2022-12-31T09:05:03;1.52;;;0.52;;
75990;SDS011;64673;52.276;10.560;2022-12-31T09:07:43;2.17;;;0.50;;
75990;SDS011;64673;52.276;10.560;2022-12-31T09:10:20;1.27;;;0.73;;
75990;SDS011;64673;52.276;10.560;2022-12-31T09:15:50;1.63;;;0.90;;
75990;SDS011;64673;52.276;10.560;2022-12-31T09:18:17;2.58;;;0.80;;
75990;SDS011;64673;52.276;10.560;2022-12-31T09:20:43;1.98;;;1.13;;
75990;SDS011;64673;52.276;10.560;2022-12-31T09:23:09;3.92;;;0.85;;
75990;SDS011;64673;52.276;10.560;2022-12-31T09:25:36;1.95;;;0.80;;
75990;SDS011;64673;52.276;10.560;2022-12-31T09:28:10;3.03;;;0.80;;
75990;SDS011;64673;52.276;10.560;2022-12-31T09:31:17;1.35;;;0.80;;
75990;SDS011;64673;52.276;10.560;2022-12-31T09:34:00;1.77;;;1.02;;
75990;SDS011;64673;52.276;10.560;2022-12-31T09:36:42;1.70;;;1.10;;
75990;SDS011;64673;52.276;10.560;2022-12-31T09:39:21;1.98;;;0.73;;
75990;SDS011;64673;52.276;10.560;2022-12-31T09:50:33;1.40;;;0.70;;
75990;SDS011;64673;52.276;10.560;2022-12-31T09:55:55;1.23;;;0.70;;
75990;SDS011;64673;52.276;10.560;2022-12-31T10:07:00;1.40;;;0.50;;
75990;SDS011;64673;52.276;10.560;2022-12-31T10:12:45;2.15;;;0.95;;
75990;SDS011;64673;52.276;10.560;2022-12-31T10:18:13;0.80;;;0.40;;
75990;SDS011;64673;52.276;10.560;2022-12-31T10:23:30;5.45;;;0.60;;
75990;SDS011;64673;52.276;10.560;2022-12-31T10:29:10;3.00;;;0.40;;
75990;SDS011;64673;52.276;10.560;2022-12-31T10:34:53;2.78;;;0.70;;
75990;SDS011;64673;52.276;10.560;2022-12-31T10:37:17;2.97;;;0.70;;
75990;SDS011;64673;52.276;10.560;2022-12-31T10:46:09;1.05;;;0.50;;
75990;SDS011;64673;52.276;10.560;2022-12-31T10:49:01;2.15;;;0.68;;
75990;SDS011;64673;52.276;10.560;2022-12-31T11:02:56;2.13;;;0.52;;
75990;SDS011;64673;52.276;10.560;2022-12-31T11:08:16;2.00;;;0.80;;
75990;SDS011;64673;52.276;10.560;2022-12-31T11:11:16;2.90;;;0.93;;
75990;SDS011;64673;52.276;10.560;2022-12-31T11:42:02;0.45;;;0.15;;
75990;SDS011;64673;52.276;10.560;2022-12-31T11:58:13;1.60;;;0.52;;
75990;SDS011;64673;52.276;10.560;2022-12-31T12:00:43;0.93;;;0.40;;
75990;SDS011;64673;52.276;10.560;2022-12-31T12:03:21;1.70;;;0.50;;
75990;SDS011;64673;52.276;10.560;2022-12-31T12:05:48;0.95;;;0.40;;
75990;SDS011;64673;52.276;10.560;2022-12-31T12:08:14;0.82;;;0.40;;
75990;SDS011;64673;52.276;10.560;2022-12-31T12:10:46;0.63;;;0.35;;
75990;SDS011;64673;52.276;10.560;2022-12-31T12:15:47;0.40;;;0.20;;
75990;SDS011;64673;52.276;10.560;2022-12-31T12:21:05;1.02;;;0.40;;
75990;SDS011;64673;52.276;10.560;2022-12-31T12:23:34;1.27;;;0.40;;
75990;SDS011;64673;52.276;10.560;2022-12-31T12:26:01;0.40;;;0.20;;
75990;SDS011;64673;52.276;10.560;2022-12-31T12:28:28;0.50;;;0.30;;
75990;SDS011;64673;52.276;10.560;2022-12-31T12:30:59;0.73;;;0.30;;
75990;SDS011;64673;52.276;10.560;2022-12-31T12:33:27;1.35;;;0.40;;
75990;SDS011;64673;52.276;10.560;2022-12-31T12:38:30;2.65;;;0.65;;
75990;SDS011;64673;52.276;10.560;2022-12-31T12:41:00;1.35;;;0.55;;
75990;SDS011;64673;52.276;10.560;2022-12-31T12:43:32;1.25;;;0.20;;
75990;SDS011;64673;52.276;10.560;2022-12-31T12:46:00;0.80;;;0.30;;
75990;SDS011;64673;52.276;10.560;2022-12-31T12:48:38;1.52;;;0.32;;
75990;SDS011;64673;52.276;10.560;2022-12-31T12:51:14;0.52;;;0.40;;
75990;SDS011;64673;52.276;10.560;2022-12-31T12:59:40;1.63;;;0.65;;
75990;SDS011;64673;52.276;10.560;2022-12-31T13:12:34;1.73;;;0.30;;
75990;SDS011;64673;52.276;10.560;2022-12-31T13:15:17;2.78;;;0.63;;
75990;SDS011;64673;52.276;10.560;2022-12-31T13:20:44;1.80;;;0.57;;
75990;SDS011;64673;52.276;10.560;2022-12-31T13:23:23;1.63;;;0.60;;
75990;SDS011;64673;52.276;10.560;2022-12-31T13:28:34;4.55;;;1.00;;
75990;SDS011;64673;52.276;10.560;2022-12-31T13:31:05;2.08;;;0.60;;
75990;SDS011;64673;52.276;10.560;2022-12-31T13:33:36;1.75;;;0.75;;
75990;SDS011;64673;52.276;10.560;2022-12-31T13:36:08;2.85;;;0.93;;
75990;SDS011;64673;52.276;10.560;2022-12-31T13:38:43;2.08;;;0.50;;
75990;SDS011;64673;52.276;10.560;2022-12-31T13:41:13;1.25;;;0.30;;
75990;SDS011;64673;52.276;10.560;2022-12-31T13:43:55;2.47;;;0.30;;
75990;SDS011;64673;52.276;10.560;2022-12-31T13:46:36;0.73;;;0.40;;
75990;SDS011;64673;52.276;10.560;2022-12-31T14:00:16;2.25;;;0.50;;
75990;SDS011;64673;52.276;10.560;2022-12-31T14:02:55;2.13;;;0.60;;
75990;SDS011;64673;52.276;10.560;2022-12-31T14:08:18;1.42;;;0.60;;
75990;SDS011;64673;52.276;10.560;2022-12-31T14:27:02;2.55;;;0.70;;
75990;SDS011;64673;52.276;10.560;2022-12-31T14:29:46;1.95;;;0.60;;
75990;SDS011;64673;52.276;10.560;2022-12-31T14:35:03;0.75;;;0.40;;
75990;SDS011;64673;52.276;10.560;2022-12-31T14:51:47;2.58;;;0.50;;
75990;SDS011;64673;52.276;10.560;2022-12-31T14:57:16;1.63;;;0.68;;
75990;SDS011;64673;52.276;10.560;2022-12-31T14:59:52;2.10;;;0.50;;
75990;SDS011;64673;52.276;10.560;2022-12-31T15:02:30;2.80;;;0.50;;
75990;SDS011;64673;52.276;10.560;2022-12-31T15:07:38;1.98;;;0.43;;
75990;SDS011;64673;52.276;10.560;2022-12-31T15:20:57;1.08;;;0.50;;
75990;SDS011;64673;52.276;10.560;2022-12-31T15:23:51;2.95;;;0.50;;
75990;SDS011;64673;52.276;10.560;2022-12-31T15:26:21;1.85;;;0.20;;
75990;SDS011;64673;52.276;10.560;2022-12-31T15:28:55;1.65;;;0.50;;
75990;SDS011;64673;52.276;10.560;2022-12-31T15:31:32;1.80;;;0.40;;
75990;SDS011;64673;52.276;10.560;2022-12-31T15:36:35;3.05;;;0.93;;
75990;SDS011;64673;52.276;10.560;2022-12-31T15:44:07;1.58;;;0.50;;
75990;SDS011;64673;52.276;10.560;2022-12-31T15:46:37;1.55;;;0.40;;
75990;SDS011;64673;52.276;10.560;2022-12-31T15:49:16;2.08;;;0.60;;
75990;SDS011;64673;52.276;10.560;2022-12-31T15:51:46;1.80;;;0.50;;
75990;SDS011;64673;52.276;10.560;2022-12-31T15:54:37;2.65;;;0.60;;
75990;SDS011;64673;52.276;10.560;2022-12-31T15:57:05;2.70;;;0.90;;
75990;SDS011;64673;52.276;10.560;2022-12-31T15:59:40;3.03;;;0.85;;
75990;SDS011;64673;52.276;10.560;2022-12-31T16:02:15;1.77;;;0.70;;
75990;SDS011;64673;52.276;10.560;2022-12-31T16:04:45;2.75;;;0.63;;
75990;SDS011;64673;52.276;10.560;2022-12-31T16:07:14;2.05;;;0.88;;
75990;SDS011;64673;52.276;10.560;2022-12-31T16:09:41;2.35;;;0.55;;
75990;SDS011;64673;52.276;10.560;2022-12-31T16:12:09;1.10;;;0.60;;
75990;SDS011;64673;52.276;10.560;2022-12-31T16:14:42;2.92;;;0.77;;
75990;SDS011;64673;52.276;10.560;2022-12-31T16:19:54;2.05;;;0.88;;
75990;SDS011;64673;52.276;10.560;2022-12-31T16:22:56;3.45;;;1.00;;
75990;SDS011;64673;52.276;10.560;2022-12-31T16:25:20;2.03;;;0.80;;
75990;SDS011;64673;52.276;10.560;2022-12-31T16:27:47;2.13;;;0.77;;
75990;SDS011;64673;52.276;10.560;2022-12-31T16:30:19;1.85;;;0.75;;
75990;SDS011;64673;52.276;10.560;2022-12-31T16:32:50;2.40;;;0.90;;
75990;SDS011;64673;52.276;10.560;2022-12-31T16:38:09;2.85;;;0.80;;
75990;SDS011;64673;52.276;10.560;2022-12-31T16:40:40;1.65;;;0.77;;
75990;SDS011;64673;52.276;10.560;2022-12-31T16:43:24;2.10;;;0.75;;
75990;SDS011;64673;52.276;10.560;2022-12-31T16:45:51;2.42;;;0.77;;
75990;SDS011;64673;52.276;10.560;2022-12-31T16:48:19;2.90;;;0.80;;
75990;SDS011;64673;52.276;10.560;2022-12-31T16:50:46;2.85;;;0.80;;
75990;SDS011;64673;52.276;10.560;2022-12-31T16:53:15;1.83;;;0.70;;
75990;SDS011;64673;52.276;10.560;2022-12-31T16:55:43;3.17;;;0.98;;
75990;SDS011;64673;52.276;10.560;2022-12-31T16:58:30;1.80;;;0.65;;
75990;SDS011;64673;52.276;10.560;2022-12-31T17:01:07;2.28;;;0.98;;
75990;SDS011;64673;52.276;10.560;2022-12-31T17:03:38;2.67;;;1.33;;
75990;SDS011;64673;52.276;10.560;2022-12-31T17:06:11;1.85;;;0.90;;
75990;SDS011;64673;52.276;10.560;2022-12-31T17:08:40;2.75;;;0.90;;
75990;SDS011;64673;52.276;10.560;2022-12-31T17:14:26;3.88;;;1.50;;
75990;SDS011;64673;52.276;10.560;2022-12-31T17:22:12;3.58;;;1.83;;
75990;SDS011;64673;52.276;10.560;2022-12-31T17:24:49;2.00;;;1.15;;
75990;SDS011;64673;52.276;10.560;2022-12-31T17:27:16;2.22;;;1.35;;
75990;SDS011;64673;52.276;10.560;2022-12-31T17:29:43;3.30;;;1.30;;
75990;SDS011;64673;52.276;10.560;2022-12-31T17:32:34;4.70;;;2.47;;
75990;SDS011;64673;52.276;10.560;2022-12-31T17:35:01;3.05;;;1.88;;
75990;SDS011;64673;52.276;10.560;2022-12-31T17:37:27;1.88;;;1.20;;
75990;SDS011;64673;52.276;10.560;2022-12-31T17:39:55;3.20;;;1.50;;
75990;SDS011;64673;52.276;10.560;2022-12-31T17:42:35;4.95;;;1.83;;
75990;SDS011;64673;52.276;10.560;2022-12-31T17:45:05;3.55;;;1.20;;
75990;SDS011;64673;52.276;10.560;2022-12-31T17:47:34;2.28;;;1.10;;
75990;SDS011;64673;52.276;10.560;2022-12-31T17:50:35;3.40;;;1.30;;
75990;SDS011;64673;52.276;10.560;2022-12-31T17:53:10;2.28;;;1.00;;
75990;SDS011;64673;52.276;10.560;2022-12-31T17:55:36;4.75;;;1.40;;
75990;SDS011;64673;52.276;10.560;2022-12-31T17:58:02;3.13;;;1.42;;
75990;SDS011;64673;52.276;10.560;2022-12-31T18:00:29;4.15;;;1.63;;
75990;SDS011;64673;52.276;10.560;2022-12-31T18:05:22;1.50;;;0.95;;
75990;SDS011;64673;52.276;10.560;2022-12-31T18:07:48;4.60;;;1.30;;
75990;SDS011;64673;52.276;10.560;2022-12-31T18:10:14;4.72;;;1.08;;
75990;SDS011;64673;52.276;10.560;2022-12-31T18:12:42;2.58;;;0.80;;
75990;SDS011;64673;52.276;10.560;2022-12-31T18:15:13;1.63;;;0.90;;
75990;SDS011;64673;52.276;10.560;2022-12-31T18:17:43;2.17;;;0.90;;
75990;SDS011;64673;52.276;10.560;2022-12-31T18:20:09;2.88;;;1.38;;
75990;SDS011;64673;52.276;10.560;2022-12-31T18:22:36;2.78;;;1.02;;
75990;SDS011;64673;52.276;10.560;2022-12-31T18:25:03;3.28;;;1.10;;
75990;SDS011;64673;52.276;10.560;2022-12-31T18:27:28;4.82;;;1.20;;
75990;SDS011;64673;52.276;10.560;2022-12-31T18:29:58;2.03;;;1.05;;
75990;SDS011;64673;52.276;10.560;2022-12-31T18:32:27;4.18;;;1.73;;
75990;SDS011;64673;52.276;10.560;2022-12-31T18:34:55;2.10;;;1.23;;
75990;SDS011;64673;52.276;10.560;2022-12-31T18:37:21;2.92;;;1.20;;
75990;SDS011;64673;52.276;10.560;2022-12-31T18:39:46;3.97;;;1.30;;
75990;SDS011;64673;52.276;10.560;2022-12-31T18:42:16;2.28;;;1.13;;
75990;SDS011;64673;52.276;10.560;2022-12-31T18:44:43;2.47;;;1.30;;
75990;SDS011;64673;52.276;10.560;2022-12-31T18:47:13;3.72;;;1.92;;
75990;SDS011;64673;52.276;10.560;2022-12-31T18:49:40;4.13;;;1.92;;
75990;SDS011;64673;52.276;10.560;2022-12-31T18:52:08;2.15;;;1.33;;
75990;SDS011;64673;52.276;10.560;2022-12-31T18:54:38;2.85;;;1.40;;
75990;SDS011;64673;52.276;10.560;2022-12-31T18:57:04;3.67;;;1.75;;
75990;SDS011;64673;52.276;10.560;2022-12-31T18:59:29;2.50;;;1.50;;
75990;SDS011;64673;52.276;10.560;2022-12-31T19:01:54;2.40;;;1.20;;
75990;SDS011;64673;52.276;10.560;2022-12-31T19:04:20;2.35;;;1.23;;
75990;SDS011;64673;52.276;10.560;2022-12-31T19:06:45;3.45;;;1.50;;
75990;SDS011;64673;52.276;10.560;2022-12-31T19:09:11;5.28;;;1.58;;
75990;SDS011;64673;52.276;10.560;2022-12-31T19:11:38;3.13;;;1.10;;
75990;SDS011;64673;52.276;10.560;2022-12-31T19:14:25;2.67;;;1.40;;
75990;SDS011;64673;52.276;10.560;2022-12-31T19:16:50;4.93;;;1.88;;
75990;SDS011;64673;52.276;10.560;2022-12-31T19:19:17;4.00;;;1.40;;
75990;SDS011;64673;52.276;10.560;2022-12-31T19:21:43;4.63;;;1.60;;
75990;SDS011;64673;52.276;10.560;2022-12-31T19:24:23;3.47;;;1.55;;
75990;SDS011;64673;52.276;10.560;2022-12-31T19:26:50;4.05;;;1.33;;
75990;SDS011;64673;52.276;10.560;2022-12-31T19:29:21;3.17;;;1.42;;
75990;SDS011;64673;52.276;10.560;2022-12-31T19:31:48;14.15;;;4.15;;
75990;SDS011;64673;52.276;10.560;2022-12-31T19:34:13;7.15;;;4.30;;
75990;SDS011;64673;52.276;10.560;2022-12-31T19:36:39;2.85;;;1.67;;